Time;durP1;ratioP1;P1;durP2;ratioP2;P2;SDS_P1;SDS_P2;PMS_P1;PMS_P2;Temp;Humidity;BMP_temperature;BMP_pressure;BME280_temperature;BME280_humidity;BME280_pressure;Samples;Min_cycle;Max_cycle;Signal;HPM_P1;HPM_P2
2021/09/03 00:02:21;;;;;;;10.00;9.00;;;;;;;17.43;79.55;96840.94;5053720;28;20171;-63
2021/09/03 00:04:46;;;;;;;10.03;8.93;;;;;;;17.40;79.53;96844.13;5052935;28;20503;-63
2021/09/03 00:07:12;;;;;;;9.37;8.47;;;;;;;17.39;79.74;96839.84;5053412;28;20187;-71
2021/09/03 00:09:38;;;;;;;8.70;7.80;;;;;;;17.39;79.35;96834.53;5053398;28;20171;-71
2021/09/03 00:12:05;;;;;;;9.70;8.30;;;;;;;17.38;79.10;96846.25;5064411;28;20197;-71
2021/09/03 00:14:32;;;;;;;9.07;8.17;;;;;;;17.38;79.25;96834.81;5073016;28;20437;-63
2021/09/03 00:16:58;;;;;;;8.93;8.13;;;;;;;17.39;79.26;96829.22;5072060;28;20460;-72
2021/09/03 00:19:24;;;;;;;9.23;8.27;;;;;;;17.36;79.49;96834.25;5070877;28;20891;-63
2021/09/03 00:21:50;;;;;;;9.30;8.40;;;;;;;17.34;79.24;96833.72;5053285;28;20414;-71
2021/09/03 00:24:15;;;;;;;8.37;7.57;;;;;;;17.31;79.61;96831.56;5052543;28;20171;-71
2021/09/03 00:26:41;;;;;;;7.77;7.07;;;;;;;17.29;79.76;96833.69;5053275;28;20456;-63
2021/09/03 00:29:06;;;;;;;8.57;7.67;;;;;;;17.24;79.85;96821.19;5053203;28;20175;-71
2021/09/03 00:31:31;;;;;;;8.80;7.80;;;;;;;17.22;79.72;96825.94;5053167;28;20167;-63
2021/09/03 00:33:57;;;;;;;8.37;7.63;;;;;;;17.19;79.57;96817.69;5052631;28;20512;-64
2021/09/03 00:36:22;;;;;;;8.00;7.20;;;;;;;17.17;79.51;96817.16;5073096;28;20244;-71
2021/09/03 00:38:47;;;;;;;7.80;7.10;;;;;;;17.13;79.49;96819.50;5073193;28;20202;-71
2021/09/03 00:41:13;;;;;;;7.77;7.00;;;;;;;17.12;79.05;96814.47;5073014;28;20224;-63
2021/09/03 00:43:38;;;;;;;8.10;7.40;;;;;;;17.02;79.42;96817.03;5061261;28;20183;-71
2021/09/03 00:46:04;;;;;;;8.13;7.43;;;;;;;17.03;78.80;96814.13;5053094;28;20270;-63
2021/09/03 00:48:30;;;;;;;8.77;7.87;;;;;;;17.02;78.67;96817.84;5056305;28;20187;-71
2021/09/03 00:50:56;;;;;;;7.23;6.63;;;;;;;17.00;78.88;96816.47;5055701;28;20279;-71
2021/09/03 00:53:22;;;;;;;8.53;7.57;;;;;;;16.93;79.10;96802.63;5056734;28;20171;-71
2021/09/03 00:55:48;;;;;;;7.40;6.73;;;;;;;16.92;79.26;96812.44;5056815;28;20749;-63
2021/09/03 00:58:14;;;;;;;7.70;7.00;;;;;;;16.90;79.17;96803.94;5066473;28;20453;-63
2021/09/03 01:00:39;;;;;;;7.90;7.20;;;;;;;16.88;79.08;96800.75;5063017;28;20832;-71
2021/09/03 01:03:05;;;;;;;6.87;6.20;;;;;;;16.88;79.39;96805.25;5055244;28;20253;-71
2021/09/03 01:05:30;;;;;;;9.60;7.47;;;;;;;16.86;78.85;96800.19;5056787;28;20202;-63
2021/09/03 01:07:56;;;;;;;7.83;7.10;;;;;;;16.81;79.21;96808.13;5056539;28;20206;-71
2021/09/03 01:10:22;;;;;;;8.23;7.43;;;;;;;16.76;79.23;96802.75;5056662;28;20206;-71
2021/09/03 01:12:50;;;;;;;9.23;8.33;;;;;;;16.73;79.69;96797.97;5062232;28;20175;-63
2021/09/03 01:15:17;;;;;;;9.37;7.27;;;;;;;16.69;79.89;96802.19;5076642;28;20437;-71
2021/09/03 01:17:42;;;;;;;7.37;6.63;;;;;;;16.73;79.63;96799.81;5076770;28;20451;-71
2021/09/03 01:20:11;;;;;;;7.47;6.77;;;;;;;16.67;79.58;96793.66;5076616;28;20405;-71
2021/09/03 01:22:38;;;;;;;7.70;6.93;;;;;;;16.66;79.51;96797.38;5076223;28;20206;-64
2021/09/03 01:25:03;;;;;;;7.53;6.83;;;;;;;16.64;79.49;96798.69;5074475;28;20449;-63
2021/09/03 01:27:29;;;;;;;7.90;7.13;;;;;;;16.61;79.42;96801.84;5076464;28;20458;-63
2021/09/03 01:29:54;;;;;;;7.37;6.67;;;;;;;16.62;79.13;96803.44;5075083;28;20166;-71
2021/09/03 01:32:19;;;;;;;8.17;7.37;;;;;;;16.61;79.32;96809.81;5076370;28;20170;-63
2021/09/03 01:34:45;;;;;;;7.03;6.33;;;;;;;16.60;79.37;96806.34;5075925;28;20186;-71
2021/09/03 01:37:11;;;;;;;7.47;6.73;;;;;;;16.58;79.41;96800.47;5076391;28;20175;-63
2021/09/03 01:39:37;;;;;;;7.17;6.47;;;;;;;16.54;79.69;96793.28;5065045;28;20170;-63
2021/09/03 01:42:02;;;;;;;7.40;6.70;;;;;;;16.48;79.91;96787.13;5059442;28;20238;-71
2021/09/03 01:44:28;;;;;;;8.40;7.50;;;;;;;16.50;79.82;96787.69;5055635;28;20438;-71
2021/09/03 01:46:54;;;;;;;8.80;7.87;;;;;;;16.52;79.79;96782.94;5056115;28;20194;-71
2021/09/03 01:49:19;;;;;;;8.93;8.03;;;;;;;16.53;79.48;96789.03;5056080;28;20175;-71
2021/09/03 01:51:44;;;;;;;8.53;7.73;;;;;;;16.51;79.27;96785.81;5056042;28;20221;-63
2021/09/03 01:54:10;;;;;;;8.07;7.37;;;;;;;16.46;79.54;96792.66;5059950;28;20174;-71
2021/09/03 01:56:35;;;;;;;8.27;7.57;;;;;;;16.41;79.92;96789.94;5074974;28;20644;-71
2021/09/03 01:59:01;;;;;;;8.00;7.07;;;;;;;16.43;79.51;96782.53;5075387;28;20197;-71
2021/09/03 02:01:26;;;;;;;7.40;6.70;;;;;;;16.44;79.60;96784.16;5074077;28;20257;-71
2021/09/03 02:03:52;;;;;;;7.37;6.67;;;;;;;16.43;79.53;96777.25;5059902;28;20536;-71
2021/09/03 02:06:17;;;;;;;7.73;6.73;;;;;;;16.40;79.63;96780.41;5055718;28;20199;-71
2021/09/03 02:08:42;;;;;;;8.23;7.50;;;;;;;16.40;79.40;96779.59;5054312;28;20175;-71
2021/09/03 02:11:08;;;;;;;8.80;7.90;;;;;;;16.35;79.60;96776.91;5055646;28;20665;-71
2021/09/03 02:13:34;;;;;;;6.77;6.17;;;;;;;16.30;79.56;96769.72;5055195;28;20253;-63
2021/09/03 02:15:59;;;;;;;8.27;7.47;;;;;;;16.30;79.46;96767.06;5055702;28;20194;-71
2021/09/03 02:18:25;;;;;;;8.70;6.80;;;;;;;16.30;79.36;96766.25;5068692;28;20625;-71
2021/09/03 02:20:50;;;;;;;7.60;6.90;;;;;;;16.26;79.47;96773.09;5075345;28;20577;-63
2021/09/03 02:23:15;;;;;;;8.30;7.50;;;;;;;16.27;79.38;96767.53;5074978;28;20167;-63
2021/09/03 02:25:41;;;;;;;7.00;6.40;;;;;;;16.21;79.60;96776.53;5075349;28;20276;-72
2021/09/03 02:28:06;;;;;;;8.37;6.80;;;;;;;16.18;79.66;96773.53;5075217;28;20195;-63
2021/09/03 02:30:32;;;;;;;8.27;7.40;;;;;;;16.14;79.90;96767.94;5068069;28;20172;-63
2021/09/03 02:32:57;;;;;;;8.47;7.43;;;;;;;16.13;79.88;96773.50;5053580;28;20182;-63
2021/09/03 02:35:23;;;;;;;8.10;7.37;;;;;;;16.14;79.65;96770.59;5055160;28;20270;-63
2021/09/03 02:37:48;;;;;;;9.30;7.50;;;;;;;16.16;79.54;96770.38;5055244;28;20199;-63
2021/09/03 02:40:14;;;;;;;7.63;6.83;;;;;;;16.13;79.75;96766.34;5055216;28;20167;-63
2021/09/03 02:42:39;;;;;;;8.17;6.10;;;;;;;16.08;79.78;96758.34;5054690;28;20207;-70
2021/09/03 02:45:05;;;;;;;10.03;8.50;;;;;;;16.11;79.75;96763.16;5058524;28;20198;-63
2021/09/03 02:47:31;;;;;;;8.87;7.90;;;;;;;16.10;79.72;96756.25;5075095;28;20201;-71
2021/09/03 02:49:56;;;;;;;8.67;7.77;;;;;;;16.05;79.71;96758.84;5058088;28;20418;-63
2021/09/03 02:52:22;;;;;;;7.17;6.50;;;;;;;16.02;80.14;96755.88;5054691;28;20538;-63
2021/09/03 02:54:47;;;;;;;7.53;6.83;;;;;;;16.02;80.02;96755.88;5054250;28;20202;-71
2021/09/03 02:57:12;;;;;;;8.00;7.20;;;;;;;16.02;80.21;96747.94;5054658;28;20175;-63
2021/09/03 02:59:38;;;;;;;7.93;7.13;;;;;;;16.03;79.46;96749.56;5054814;28;20517;-62
2021/09/03 03:02:03;;;;;;;11.40;7.70;;;;;;;15.98;79.58;96744.22;5058614;28;20183;-63
2021/09/03 03:04:28;;;;;;;8.30;7.50;;;;;;;15.91;79.73;96744.38;5053954;28;20202;-71
2021/09/03 03:06:54;;;;;;;8.17;6.47;;;;;;;15.92;79.49;96746.00;5054416;28;20249;-71
2021/09/03 03:09:19;;;;;;;8.50;7.70;;;;;;;15.92;79.14;96738.06;5054515;28;20574;-63
2021/09/03 03:11:44;;;;;;;6.87;6.27;;;;;;;15.87;79.56;96742.50;5054565;28;20171;-71
2021/09/03 03:14:26;;;;;;;7.57;6.87;;;;;;;15.81;80.06;96739.00;5054171;28;20176;-63
2021/09/03 03:16:53;;;;;;;7.50;6.83;;;;;;;15.79;79.72;96735.78;5068085;28;20197;-63
2021/09/03 03:19:18;;;;;;;8.90;8.00;;;;;;;15.77;79.64;96732.59;5074382;28;20405;-63
2021/09/03 03:21:44;;;;;;;7.87;7.10;;;;;;;15.73;79.97;96734.13;5074619;28;20401;-63
2021/09/03 03:24:09;;;;;;;13.43;7.80;;;;;;;15.77;79.86;96737.06;5073734;28;20174;-63
2021/09/03 03:26:34;;;;;;;7.37;6.67;;;;;;;15.74;80.04;96738.38;5074304;28;20190;-63
2021/09/03 03:29:00;;;;;;;7.80;7.10;;;;;;;15.73;80.13;96730.66;5074106;28;20220;-63
2021/09/03 03:31:25;;;;;;;7.00;6.30;;;;;;;15.70;80.02;96734.63;5061094;28;20225;-71
2021/09/03 03:33:51;;;;;;;8.10;7.30;;;;;;;15.71;79.78;96724.84;5064937;28;20179;-71
2021/09/03 03:36:16;;;;;;;13.10;6.40;;;;;;;15.68;79.70;96725.31;5053949;28;20187;-63
2021/09/03 03:38:41;;;;;;;8.20;5.97;;;;;;;15.61;80.00;96719.41;5053882;28;20210;-71
2021/09/03 03:41:07;;;;;;;7.80;7.10;;;;;;;15.64;79.91;96724.19;5053789;28;20781;-63
2021/09/03 03:43:32;;;;;;;7.20;6.50;;;;;;;15.62;79.87;96727.09;5053416;28;20181;-63
2021/09/03 03:45:57;;;;;;;7.13;6.43;;;;;;;15.62;79.34;96729.75;5053654;28;20202;-71
2021/09/03 03:48:24;;;;;;;8.27;7.27;;;;;;;15.58;79.27;96726.00;5058616;28;20244;-63
2021/09/03 03:50:50;;;;;;;8.97;6.63;;;;;;;15.53;79.62;96725.94;5073803;28;20530;-63
2021/09/03 03:53:15;;;;;;;8.60;6.80;;;;;;;15.54;79.26;96724.91;5071914;28;20516;-63
2021/09/03 03:55:40;;;;;;;7.43;6.83;;;;;;;15.51;79.37;96720.09;5073529;28;20266;-63
2021/09/03 03:58:06;;;;;;;7.87;6.60;;;;;;;15.49;78.86;96724.81;5073733;28;20629;-71
2021/09/03 04:00:31;;;;;;;7.80;7.00;;;;;;;15.48;79.40;96719.78;5068473;28;20637;-63
2021/09/03 04:02:56;;;;;;;7.70;6.50;;;;;;;15.44;79.59;96725.59;5053397;28;20238;-71
2021/09/03 04:05:22;;;;;;;9.43;7.33;;;;;;;15.38;80.09;96731.81;5053428;28;20191;-63
2021/09/03 04:07:47;;;;;;;8.20;7.40;;;;;;;15.28;80.37;96725.59;5053209;28;20210;-71
2021/09/03 04:10:12;;;;;;;7.17;6.40;;;;;;;15.26;80.61;96719.75;5053618;28;20602;-71
2021/09/03 04:12:38;;;;;;;7.13;6.43;;;;;;;15.26;80.79;96725.84;5053140;28;20221;-71
2021/09/03 04:15:04;;;;;;;7.77;6.97;;;;;;;15.29;80.58;96719.28;5055612;28;20206;-63
2021/09/03 04:17:29;;;;;;;7.63;6.93;;;;;;;15.16;81.08;96717.00;5053389;28;20178;-71
2021/09/03 04:19:54;;;;;;;7.90;6.30;;;;;;;15.18;81.03;96710.38;5053787;28;20421;-71
2021/09/03 04:22:20;;;;;;;7.63;6.83;;;;;;;15.19;80.78;96713.84;5053008;28;20175;-63
2021/09/03 04:24:45;;;;;;;7.43;6.43;;;;;;;15.21;80.70;96715.22;5052706;28;20229;-72
2021/09/03 04:27:11;;;;;;;8.70;6.90;;;;;;;15.24;79.95;96713.91;5053418;28;20649;-71
2021/09/03 04:29:36;;;;;;;8.57;7.10;;;;;;;15.07;80.59;96721.88;5054381;28;20225;-63
2021/09/03 04:32:01;;;;;;;8.57;7.70;;;;;;;15.19;80.04;96727.88;5073142;28;20170;-62
2021/09/03 04:34:27;;;;;;;8.00;7.20;;;;;;;15.06;80.78;96722.94;5072786;28;20251;-63
2021/09/03 04:36:52;;;;;;;7.63;6.87;;;;;;;15.04;81.21;96725.03;5073105;28;20249;-63
2021/09/03 04:39:18;;;;;;;7.27;6.57;;;;;;;15.01;81.17;96730.81;5061641;28;20179;-71
2021/09/03 04:41:43;;;;;;;7.50;6.80;;;;;;;14.98;81.43;96735.81;5053094;28;20171;-63
2021/09/03 04:44:08;;;;;;;8.40;7.23;;;;;;;14.99;81.15;96732.09;5056089;28;20533;-71
2021/09/03 04:46:34;;;;;;;8.20;7.40;;;;;;;15.04;81.17;96742.75;5067710;28;20285;-63
2021/09/03 04:48:59;;;;;;;7.40;6.73;;;;;;;15.02;81.18;96739.56;5071354;28;20202;-63
2021/09/03 04:51:24;;;;;;;7.60;6.90;;;;;;;15.01;81.55;96740.59;5064809;28;20213;-64
2021/09/03 04:53:50;;;;;;;7.73;6.80;;;;;;;15.08;81.30;96747.31;5058543;28;20178;-63
2021/09/03 04:56:15;;;;;;;11.03;8.27;;;;;;;15.07;81.65;96740.41;5072983;28;20285;-63
2021/09/03 04:58:40;;;;;;;7.63;6.60;;;;;;;15.07;81.44;96734.34;5072979;28;20171;-63
2021/09/03 05:01:06;;;;;;;8.33;7.20;;;;;;;15.07;81.77;96739.63;5072830;28;20629;-63
2021/09/03 05:03:31;;;;;;;8.27;7.57;;;;;;;15.11;81.78;96738.09;5072884;28;20189;-71
2021/09/03 05:05:57;;;;;;;7.47;6.80;;;;;;;15.13;81.84;96736.00;5072975;28;20692;-63
2021/09/03 05:08:23;;;;;;;9.00;8.10;;;;;;;15.09;82.29;96735.69;5068396;28;20588;-72
2021/09/03 05:10:48;;;;;;;8.57;7.10;;;;;;;15.13;82.35;96736.00;5052609;28;20171;-63
2021/09/03 05:13:14;;;;;;;8.07;7.27;;;;;;;15.17;81.92;96731.81;5052539;28;20413;-63
2021/09/03 05:15:41;;;;;;;9.80;8.67;;;;;;;15.14;82.29;96738.41;5057854;28;20206;-70
2021/09/03 05:18:07;;;;;;;8.47;7.57;;;;;;;15.16;82.20;96736.28;5072762;28;20652;-72
2021/09/03 05:20:33;;;;;;;8.97;7.43;;;;;;;15.20;81.88;96736.63;5069218;28;20417;-63
2021/09/03 05:22:58;;;;;;;8.70;6.93;;;;;;;15.23;81.64;96736.13;5072546;28;20178;-63
2021/09/03 05:25:24;;;;;;;8.10;7.30;;;;;;;15.19;81.77;96737.66;5072543;28;20263;-62
2021/09/03 05:27:50;;;;;;;7.53;6.83;;;;;;;15.20;82.01;96731.34;5072779;28;20195;-63
2021/09/03 05:30:15;;;;;;;9.17;8.07;;;;;;;15.22;81.65;96735.34;5072694;28;20412;-70
2021/09/03 05:32:41;;;;;;;7.90;7.10;;;;;;;15.25;81.64;96742.00;5063560;28;20194;-71
2021/09/03 05:35:08;;;;;;;8.27;7.47;;;;;;;15.20;81.94;96741.94;5058582;28;20187;-71
2021/09/03 05:37:35;;;;;;;7.93;7.13;;;;;;;15.19;81.69;96748.25;5076388;28;20447;-72
2021/09/03 05:40:01;;;;;;;8.20;7.37;;;;;;;15.15;82.44;96747.13;5076131;28;20401;-71
2021/09/03 05:42:28;;;;;;;8.47;7.63;;;;;;;15.18;82.79;96749.31;5069980;28;20451;-63
2021/09/03 05:44:53;;;;;;;8.60;7.63;;;;;;;15.22;83.33;96753.88;5075941;28;20425;-71
2021/09/03 05:47:19;;;;;;;8.80;7.57;;;;;;;15.26;83.57;96749.69;5076132;28;20445;-71
2021/09/03 05:49:44;;;;;;;8.97;8.07;;;;;;;15.25;84.14;96747.28;5076121;28;20175;-63
2021/09/03 05:52:09;;;;;;;9.03;8.13;;;;;;;15.28;84.31;96744.94;5076177;28;20171;-72
2021/09/03 05:54:35;;;;;;;8.47;7.57;;;;;;;15.37;84.17;96737.38;5075636;28;20664;-63
2021/09/03 05:57:03;;;;;;;8.80;7.90;;;;;;;15.38;84.09;96742.41;5075519;28;20592;-69
2021/09/03 05:59:28;;;;;;;8.53;7.73;;;;;;;15.41;84.26;96746.47;5068265;28;20184;-65
2021/09/03 06:01:53;;;;;;;9.23;6.70;;;;;;;15.40;84.80;96744.81;5069616;28;20830;-63
2021/09/03 06:04:19;;;;;;;9.03;8.13;;;;;;;15.42;85.06;96743.56;5075487;28;20163;-71
2021/09/03 06:06:44;;;;;;;9.07;8.13;;;;;;;15.48;85.24;96739.13;5075835;28;20779;-71
2021/09/03 06:09:09;;;;;;;8.80;7.70;;;;;;;15.57;84.97;96737.66;5075883;28;20171;-72
2021/09/03 06:11:35;;;;;;;9.30;8.40;;;;;;;15.60;85.43;96736.38;5075860;28;20281;-63
2021/09/03 06:14:00;;;;;;;9.47;8.47;;;;;;;15.65;85.77;96736.41;5062250;28;20201;-63
2021/09/03 06:16:26;;;;;;;10.90;9.50;;;;;;;15.69;86.05;96742.81;5055512;28;20191;-63
2021/09/03 06:18:51;;;;;;;10.90;9.77;;;;;;;15.75;86.24;96737.31;5055640;28;20665;-63
2021/09/03 06:21:17;;;;;;;11.73;10.63;;;;;;;15.80;86.82;96745.31;5055582;28;20171;-72
2021/09/03 06:23:43;;;;;;;12.93;11.63;;;;;;;15.88;87.06;96741.44;5055064;28;20195;-71
2021/09/03 06:26:09;;;;;;;11.50;10.30;;;;;;;15.93;87.30;96741.47;5055389;28;20511;-71
2021/09/03 06:28:34;;;;;;;11.50;10.40;;;;;;;16.00;87.38;96740.25;5066123;28;20484;-71
2021/09/03 06:31:00;;;;;;;11.10;9.90;;;;;;;16.05;87.71;96742.94;5064304;28;20258;-63
2021/09/03 06:33:25;;;;;;;11.70;10.47;;;;;;;16.13;87.65;96741.69;5055333;28;20167;-67
2021/09/03 06:35:51;;;;;;;12.57;11.27;;;;;;;16.17;88.09;96740.13;5055324;28;20191;-67
2021/09/03 06:38:16;;;;;;;11.40;10.30;;;;;;;16.27;88.09;96742.88;5055362;28;20233;-60
2021/09/03 06:40:42;;;;;;;13.73;11.53;;;;;;;16.28;88.36;96737.34;5055165;28;20249;-67
2021/09/03 06:43:07;;;;;;;11.57;10.30;;;;;;;16.37;88.42;96735.03;5059931;28;20182;-61
2021/09/03 06:45:33;;;;;;;13.30;10.00;;;;;;;16.42;88.33;96741.16;5074745;28;20240;-67
2021/09/03 06:47:58;;;;;;;11.07;9.97;;;;;;;16.53;88.32;96734.13;5075009;28;20190;-69
2021/09/03 06:50:24;;;;;;;13.73;10.67;;;;;;;16.60;87.92;96734.69;5075213;28;20630;-69
2021/09/03 06:52:49;;;;;;;12.70;10.43;;;;;;;16.64;87.95;96742.94;5074710;28;20167;-61
2021/09/03 06:55:15;;;;;;;12.60;10.80;;;;;;;16.67;87.75;96740.59;5075080;28;20731;-61
2021/09/03 06:57:42;;;;;;;15.03;11.63;;;;;;;16.79;87.31;96741.22;5071313;28;20159;-60
2021/09/03 07:00:08;;;;;;;13.03;11.70;;;;;;;16.83;87.38;96731.69;5066531;28;20482;-67
2021/09/03 07:02:33;;;;;;;13.47;11.77;;;;;;;16.84;86.71;96737.78;5074583;28;20416;-67
2021/09/03 07:04:59;;;;;;;13.10;10.60;;;;;;;16.89;86.47;96740.47;5071464;28;20445;-61
2021/09/03 07:07:24;;;;;;;12.27;11.00;;;;;;;16.97;86.16;96746.13;5054739;28;20195;-67
2021/09/03 07:09:50;;;;;;;13.93;12.47;;;;;;;17.08;85.74;96749.63;5054707;28;20630;-68
2021/09/03 07:12:15;;;;;;;12.47;11.13;;;;;;;17.17;85.56;96751.56;5054715;28;20171;-61
2021/09/03 07:14:40;;;;;;;11.77;10.53;;;;;;;17.17;85.51;96750.75;5054083;28;20271;-60
2021/09/03 07:17:06;;;;;;;13.77;12.37;;;;;;;17.27;85.18;96750.78;5053248;28;20654;-60
2021/09/03 07:19:34;;;;;;;10.47;9.40;;;;;;;17.33;85.12;96745.25;5070145;28;20180;-61
2021/09/03 07:22:01;;;;;;;14.87;11.20;;;;;;;17.42;84.14;96748.22;5074465;28;20197;-60
2021/09/03 07:24:26;;;;;;;11.00;9.90;;;;;;;17.47;84.12;96753.59;5073966;28;20875;-60
2021/09/03 07:26:52;;;;;;;13.00;11.00;;;;;;;17.50;84.04;96742.44;5074465;28;20465;-61
2021/09/03 07:29:17;;;;;;;11.67;9.80;;;;;;;17.57;83.63;96750.19;5074326;28;20170;-67
2021/09/03 07:31:42;;;;;;;11.87;10.33;;;;;;;17.61;83.20;96746.72;5074238;28;20171;-67
2021/09/03 07:34:08;;;;;;;13.80;11.87;;;;;;;17.71;83.59;96753.94;5067918;28;20649;-61
2021/09/03 07:36:33;;;;;;;17.17;12.50;;;;;;;17.75;83.28;96752.38;5072771;28;20255;-60
2021/09/03 07:38:58;;;;;;;13.37;11.97;;;;;;;17.80;83.56;96755.84;5059165;28;20240;-65
2021/09/03 07:41:24;;;;;;;11.63;10.53;;;;;;;17.89;83.18;96748.16;5062870;28;20213;-65
2021/09/03 07:43:50;;;;;;;11.50;10.50;;;;;;;17.94;83.26;96748.16;5064808;28;20170;-65
2021/09/03 07:46:16;;;;;;;11.37;10.17;;;;;;;17.96;83.03;96738.88;5065134;28;20187;-65
2021/09/03 07:48:41;;;;;;;11.00;9.90;;;;;;;18.03;83.58;96731.44;5056208;28;20453;-62
2021/09/03 07:51:06;;;;;;;11.27;9.83;;;;;;;18.07;83.88;96732.50;5065117;28;20632;-61
2021/09/03 07:53:32;;;;;;;10.60;9.60;;;;;;;18.16;84.03;96736.25;5064366;28;20541;-65
2021/09/03 07:55:57;;;;;;;11.13;8.80;;;;;;;18.20;83.89;96739.19;5064919;28;20199;-64
2021/09/03 07:58:23;;;;;;;10.17;9.17;;;;;;;18.27;83.79;96732.53;5067821;28;20164;-63
2021/09/03 08:00:48;;;;;;;10.13;8.57;;;;;;;18.35;83.85;96731.22;5065435;28;20544;-60
2021/09/03 08:03:14;;;;;;;14.53;10.97;;;;;;;18.40;83.46;96728.56;5061434;28;20174;-60
2021/09/03 08:05:39;;;;;;;11.53;10.10;;;;;;;18.40;82.40;96725.91;5063833;28;20665;-61
2021/09/03 08:08:06;;;;;;;11.80;10.70;;;;;;;18.50;79.95;96725.16;5063289;28;20205;-62
2021/09/03 08:10:33;;;;;;;11.10;9.90;;;;;;;18.55;80.81;96727.81;5065431;28;20171;-65
2021/09/03 08:12:59;;;;;;;11.83;10.63;;;;;;;18.65;80.84;96725.94;5057536;28;20422;-61
2021/09/03 08:15:25;;;;;;;10.50;9.50;;;;;;;18.74;80.71;96732.31;5060598;28;20998;-62
2021/09/03 08:17:50;;;;;;;11.33;10.13;;;;;;;18.83;81.06;96733.38;5059276;28;20478;-68
2021/09/03 08:20:16;;;;;;;10.97;9.80;;;;;;;18.87;80.81;96723.78;5069955;28;20174;-59
2021/09/03 08:22:41;;;;;;;11.03;9.83;;;;;;;18.97;80.81;96736.28;5069137;28;20308;-59
2021/09/03 08:25:08;;;;;;;10.77;9.77;;;;;;;19.00;80.78;96733.88;5068454;28;20255;-60
2021/09/03 08:27:35;;;;;;;11.37;10.20;;;;;;;19.07;78.41;96734.41;5069735;28;20526;-62
2021/09/03 08:30:00;;;;;;;10.73;9.57;;;;;;;19.10;78.55;96733.84;5069933;28;20417;-65
2021/09/03 08:32:26;;;;;;;10.80;9.70;;;;;;;19.16;78.62;96734.63;5066491;28;20189;-65
2021/09/03 08:34:51;;;;;;;10.30;8.87;;;;;;;19.18;78.24;96740.50;5066056;28;20194;-63
2021/09/03 08:37:17;;;;;;;13.67;10.90;;;;;;;19.19;77.05;96740.22;5049856;28;20645;-65
2021/09/03 08:39:42;;;;;;;13.30;10.63;;;;;;;19.23;75.15;96733.28;5049747;28;20258;-65
2021/09/03 08:42:13;;;;;;;11.60;10.40;;;;;;;19.36;75.64;96738.09;5049625;28;20175;-66
2021/09/03 08:44:38;;;;;;;10.50;9.23;;;;;;;19.40;76.29;96736.44;5049389;28;20215;-65
2021/09/03 08:47:04;;;;;;;9.83;8.30;;;;;;;19.42;77.25;96738.88;5049215;28;20489;-65
2021/09/03 08:49:30;;;;;;;10.03;9.13;;;;;;;19.55;77.31;96742.81;5051341;28;20906;-64
2021/09/03 08:51:56;;;;;;;9.47;8.57;;;;;;;19.69;77.18;96743.81;5060264;28;20175;-60
2021/09/03 08:54:22;;;;;;;9.17;8.27;;;;;;;19.75;77.01;96737.41;5052909;28;20178;-69
2021/09/03 08:56:47;;;;;;;8.27;7.47;;;;;;;19.87;76.47;96741.34;5066343;28;20486;-64
2021/09/03 08:59:14;;;;;;;11.07;9.70;;;;;;;19.84;74.60;96739.19;5067301;28;20556;-67
2021/09/03 09:01:40;;;;;;;9.50;8.60;;;;;;;19.90;74.86;96735.44;5055300;28;20179;-63
2021/09/03 09:04:13;;;;;;;9.43;8.53;;;;;;;19.94;74.91;96741.84;5049190;28;20420;-63
2021/09/03 09:06:41;;;;;;;8.63;7.80;;;;;;;20.10;74.98;96747.88;5049653;28;20681;-59
2021/09/03 09:09:07;;;;;;;8.83;7.93;;;;;;;20.13;73.95;96742.78;5059712;28;20409;-59
2021/09/03 09:11:35;;;;;;;8.77;7.90;;;;;;;20.19;74.35;96748.91;5072828;28;20428;-62
2021/09/03 09:14:08;;;;;;;9.33;8.17;;;;;;;20.15;73.24;96750.50;5072978;28;20174;-60
2021/09/03 09:16:33;;;;;;;9.13;8.23;;;;;;;20.23;71.44;96752.63;5069846;28;20437;-58
2021/09/03 09:19:04;;;;;;;9.90;8.93;;;;;;;19.98;70.62;96744.75;5063058;28;20505;-58
2021/09/03 09:21:35;;;;;;;8.77;7.90;;;;;;;20.31;70.81;96742.16;5066601;28;20232;-59
2021/09/03 09:24:15;;;;;;;13.10;8.47;;;;;;;20.47;73.18;96740.19;5050920;28;20410;-60
2021/09/03 09:26:48;;;;;;;8.67;7.80;;;;;;;20.54;73.13;96739.88;5053078;28;20406;-59
2021/09/03 09:29:21;;;;;;;7.87;7.17;;;;;;;20.70;73.18;96733.31;5053115;28;20417;-67
2021/09/03 09:31:51;;;;;;;8.80;8.00;;;;;;;20.77;73.39;96734.59;5053028;28;20397;-60
2021/09/03 09:34:19;;;;;;;8.33;7.53;;;;;;;20.95;73.58;96733.09;5052026;28;20500;-67
2021/09/03 09:36:46;;;;;;;8.30;7.50;;;;;;;21.03;72.49;96732.53;5063115;28;20428;-65
2021/09/03 09:39:12;;;;;;;10.27;9.27;;;;;;;21.04;69.51;96724.22;5092606;28;20427;-62
2021/09/03 09:41:38;;;;;;;10.30;8.87;;;;;;;21.20;69.74;96725.66;5093151;28;20435;-61
2021/09/03 09:44:04;;;;;;;10.83;7.70;;;;;;;21.33;70.87;96726.84;5092793;28;21225;-67
2021/09/03 09:46:31;;;;;;;8.10;7.23;;;;;;;21.41;70.42;96720.88;5092409;28;20190;-61
2021/09/03 09:49:00;;;;;;;8.77;7.87;;;;;;;21.47;69.86;96719.72;5081237;28;20812;-62
2021/09/03 09:51:41;;;;;;;9.53;8.53;;;;;;;21.52;69.53;96722.38;5074565;28;20504;-60
2021/09/03 09:54:24;;;;;;;10.07;7.90;;;;;;;21.65;70.43;96718.19;5077737;28;20420;-58
2021/09/03 09:56:52;;;;;;;7.73;7.00;;;;;;;21.76;69.91;96715.09;5096499;28;20453;-67
2021/09/03 09:59:19;;;;;;;9.83;7.90;;;;;;;21.86;68.89;96716.88;5096233;28;20967;-67
2021/09/03 10:01:47;;;;;;;13.13;8.77;;;;;;;21.99;68.84;96711.63;5096364;28;20411;-67
2021/09/03 10:04:15;;;;;;;9.47;8.63;;;;;;;22.05;70.59;96715.78;5095927;28;20393;-60
2021/09/03 10:06:43;;;;;;;8.40;7.57;;;;;;;22.14;68.22;96716.72;5066449;28;20418;-60
2021/09/03 10:09:12;;;;;;;10.07;9.07;;;;;;;21.80;64.63;96707.31;5063922;28;20424;-68
2021/09/03 10:11:41;;;;;;;10.60;8.50;;;;;;;21.78;66.76;96707.56;5061906;28;20429;-60
2021/09/03 10:14:09;;;;;;;8.97;7.43;;;;;;;22.03;66.55;96703.78;5073356;28;20505;-67
2021/09/03 10:16:35;;;;;;;8.77;7.97;;;;;;;22.11;66.72;96706.59;5095940;28;20730;-60
2021/09/03 10:19:03;;;;;;;10.60;9.40;;;;;;;22.24;66.44;96705.88;5095980;28;20411;-59
2021/09/03 10:21:30;;;;;;;8.77;7.93;;;;;;;22.30;66.15;96710.06;5095157;28;20423;-67
2021/09/03 10:24:14;;;;;;;8.73;7.83;;;;;;;22.38;65.94;96703.25;5095495;28;20503;-67
2021/09/03 10:26:45;;;;;;;9.77;8.47;;;;;;;22.46;66.34;96706.06;5071494;28;20425;-60
2021/09/03 10:29:30;;;;;;;8.97;8.17;;;;;;;22.63;65.56;96704.78;5084003;28;20974;-59
2021/09/03 10:32:08;;;;;;;12.07;8.60;;;;;;;22.72;65.75;96703.78;5095928;28;20452;-60
2021/09/03 10:34:43;;;;;;;9.10;8.30;;;;;;;22.78;64.12;96699.13;5095049;28;20485;-67
2021/09/03 10:37:14;;;;;;;8.43;7.70;;;;;;;22.93;65.69;96693.53;5095794;28;20388;-60
2021/09/03 10:39:49;;;;;;;8.93;8.07;;;;;;;22.97;65.12;96691.84;5095586;28;20457;-59
2021/09/03 10:45:35;;;;;;;7.30;6.70;;;;;;;23.27;65.18;96692.06;5078809;28;20448;-67
2021/09/03 10:48:14;;;;;;;9.13;8.23;;;;;;;23.40;65.16;96688.63;5075237;28;20535;-67
2021/09/03 10:50:56;;;;;;;8.13;7.43;;;;;;;23.52;66.05;96681.97;5070034;28;20426;-67
2021/09/03 10:53:43;;;;;;;8.27;7.50;;;;;;;23.60;65.98;96686.59;5054716;28;20437;-60
2021/09/03 10:56:17;;;;;;;8.20;7.50;;;;;;;23.67;64.87;96692.34;5055048;28;20908;-63
2021/09/03 10:58:54;;;;;;;8.00;7.20;;;;;;;23.77;65.25;96684.13;5054774;28;20459;-63
2021/09/03 11:01:20;;;;;;;7.50;6.80;;;;;;;23.81;65.73;96679.72;5071490;28;20436;-61
2021/09/03 11:04:03;;;;;;;8.20;7.40;;;;;;;23.89;66.10;96679.00;5054481;28;20900;-61
2021/09/03 11:06:40;;;;;;;7.60;6.90;;;;;;;24.05;64.81;96680.28;5059383;28;20255;-61
2021/09/03 11:09:23;;;;;;;8.40;7.60;;;;;;;24.09;61.92;96673.22;5057703;28;20439;-61
2021/09/03 11:12:01;;;;;;;8.47;7.60;;;;;;;24.18;63.65;96672.19;5054571;28;20455;-60
2021/09/03 11:14:29;;;;;;;7.50;6.90;;;;;;;24.26;63.63;96668.75;5054254;28;20507;-68
2021/09/03 11:17:05;;;;;;;8.93;8.03;;;;;;;24.24;62.16;96659.44;5053281;28;20436;-61
2021/09/03 11:19:41;;;;;;;7.60;7.00;;;;;;;24.39;62.12;96661.75;5054399;28;20790;-70
2021/09/03 11:22:15;;;;;;;7.33;6.63;;;;;;;24.51;63.00;96662.00;5054665;28;20401;-68
2021/09/03 11:24:46;;;;;;;8.40;7.50;;;;;;;24.58;62.91;96659.66;5053803;28;20441;-69
2021/09/03 11:27:15;;;;;;;8.07;7.27;;;;;;;24.65;62.44;96659.22;5054278;28;20943;-60
2021/09/03 11:29:59;;;;;;;9.10;8.27;;;;;;;24.65;61.93;96661.91;5064487;28;20497;-62
2021/09/03 11:32:26;;;;;;;7.97;7.27;;;;;;;24.80;61.97;96651.59;5093742;28;20403;-62